Andrews Bridge, Pennsylvania
Current Conditions -  °F | °C
As of 12:35 PM on Saturday 22 Nov 2014 (Local Time) from KMQS Reporting Station
Clear Clear  
Wind Chill: 34°   Ceiling: Unl
Heat Index: 39°   Visibility: 10mi
Dew Point: 14°   Wind: 8mph
Humidity: 36%   Direction: 220°SW
Pressure: 30.36"   Gusts: 18mph
Location:  39.9118°N, 76.0265°W
Report Text: KMQS 221735Z AUTO 22007G16KT 200V260 10SM CLR 04/M10 A3036 RMK AO2
Loading
Personal Weather Stations






























Interactive Weather Map New forecast layout! Learn more

10-Day Weather Forecast

Advertisements
Track Severe Weather on mobile